Time;durP1;ratioP1;P1;durP2;ratioP2;P2;SDS_P1;SDS_P2;PMS_P1;PMS_P2;Temp;Humidity;BMP_temperature;BMP_pressure;BME280_temperature;BME280_humidity;BME280_pressure;Samples;Min_cycle;Max_cycle;Signal;HPM_P1;HPM_P2
2022/03/15 00:00:07;;;;;;;12.97;8.73;;;;;;;;;;4995260;28;20780;-54
2022/03/15 00:02:33;;;;;;;12.93;9.10;;;;;;;;;;4989708;28;20373;-54
2022/03/15 00:04:59;;;;;;;14.90;8.13;;;;;;;;;;4997548;28;20212;-54
2022/03/15 00:07:25;;;;;;;14.87;8.60;;;;;;;;;;4996856;28;20232;-54
2022/03/15 00:09:51;;;;;;;12.30;8.73;;;;;;;;;;4979729;28;20237;-55
2022/03/15 00:12:17;;;;;;;14.47;8.27;;;;;;;;;;4988836;28;20200;-54
2022/03/15 00:14:44;;;;;;;11.50;7.90;;;;;;;;;;4989883;28;20197;-55
2022/03/15 00:17:12;;;;;;;10.10;7.60;;;;;;;;;;4989657;28;21553;-54
2022/03/15 00:19:39;;;;;;;13.90;7.90;;;;;;;;;;4990119;28;20200;-54
2022/03/15 00:22:06;;;;;;;13.97;7.53;;;;;;;;;;4989490;28;20185;-54
2022/03/15 00:24:33;;;;;;;9.87;7.40;;;;;;;;;;4989960;28;20340;-54
2022/03/15 00:27:00;;;;;;;13.03;7.80;;;;;;;;;;4985089;28;20654;-54
2022/03/15 00:29:26;;;;;;;12.57;7.83;;;;;;;;;;4990807;28;20246;-55
2022/03/15 00:31:51;;;;;;;11.53;7.93;;;;;;;;;;4985391;28;20200;-54
2022/03/15 00:34:17;;;;;;;10.00;7.37;;;;;;;;;;4986559;28;20331;-54
2022/03/15 00:36:44;;;;;;;12.80;8.40;;;;;;;;;;4991786;28;20670;-54
2022/03/15 00:39:09;;;;;;;10.20;7.70;;;;;;;;;;4985958;28;20193;-54
2022/03/15 00:41:35;;;;;;;11.83;8.53;;;;;;;;;;4983275;28;20890;-54
2022/03/15 00:44:01;;;;;;;13.03;7.87;;;;;;;;;;4988127;28;20203;-54
2022/03/15 00:46:27;;;;;;;14.47;8.07;;;;;;;;;;4988331;28;20654;-54
2022/03/15 00:48:53;;;;;;;12.70;7.10;;;;;;;;;;4992346;28;20209;-54
2022/03/15 00:51:19;;;;;;;14.33;8.13;;;;;;;;;;4987205;28;20194;-54
2022/03/15 00:53:45;;;;;;;16.70;8.67;;;;;;;;;;4990793;28;20212;-55
2022/03/15 00:56:11;;;;;;;12.07;8.17;;;;;;;;;;4988493;28;20216;-54
2022/03/15 00:58:37;;;;;;;11.83;7.30;;;;;;;;;;4990406;28;20207;-54
2022/03/15 01:01:03;;;;;;;12.73;8.70;;;;;;;;;;4988031;28;20493;-54
2022/03/15 01:03:29;;;;;;;13.83;7.77;;;;;;;;;;4982991;28;20292;-55
2022/03/15 01:05:55;;;;;;;12.90;8.50;;;;;;;;;;4988906;28;20223;-55
2022/03/15 01:08:21;;;;;;;12.90;8.23;;;;;;;;;;4980999;28;20197;-54
2022/03/15 01:10:47;;;;;;;13.17;7.30;;;;;;;;;;4981715;28;20204;-54
2022/03/15 01:13:14;;;;;;;10.83;7.77;;;;;;;;;;4981687;28;20345;-54
2022/03/15 01:15:43;;;;;;;13.63;7.70;;;;;;;;;;4962849;28;20506;-54
2022/03/15 01:18:10;;;;;;;10.17;7.27;;;;;;;;;;4978406;28;20196;-55
2022/03/15 01:20:39;;;;;;;11.37;7.50;;;;;;;;;;4993602;28;20190;-55
2022/03/15 01:23:05;;;;;;;15.90;7.50;;;;;;;;;;4996151;28;20193;-55
2022/03/15 01:25:31;;;;;;;11.50;7.70;;;;;;;;;;4997664;28;20331;-54
2022/03/15 01:27:57;;;;;;;10.47;7.90;;;;;;;;;;4993730;28;20196;-55
2022/03/15 01:30:23;;;;;;;13.63;8.13;;;;;;;;;;4999994;28;20189;-54
2022/03/15 01:32:49;;;;;;;9.83;7.00;;;;;;;;;;4972122;28;20217;-54
2022/03/15 01:35:15;;;;;;;11.57;7.07;;;;;;;;;;4981602;28;20193;-54
2022/03/15 01:37:41;;;;;;;12.20;7.23;;;;;;;;;;4987243;28;20211;-54
2022/03/15 01:40:07;;;;;;;11.57;7.33;;;;;;;;;;4993326;28;20670;-54
2022/03/15 01:42:34;;;;;;;10.53;7.10;;;;;;;;;;4996622;28;20213;-54
2022/03/15 01:45:02;;;;;;;10.23;7.30;;;;;;;;;;5000982;28;20205;-54
2022/03/15 01:47:27;;;;;;;10.67;7.00;;;;;;;;;;4995335;28;20273;-54
2022/03/15 01:49:53;;;;;;;10.63;7.50;;;;;;;;;;4998067;28;20201;-54
2022/03/15 01:52:19;;;;;;;9.17;7.40;;;;;;;;;;4994723;28;20688;-55
2022/03/15 01:54:46;;;;;;;16.07;7.13;;;;;;;;;;5006737;28;20570;-55
2022/03/15 01:57:12;;;;;;;11.37;7.23;;;;;;;;;;5005159;28;20543;-54
2022/03/15 01:59:38;;;;;;;12.60;7.73;;;;;;;;;;5002198;28;20219;-54
2022/03/15 02:02:04;;;;;;;13.57;7.50;;;;;;;;;;5005735;28;20189;-54
2022/03/15 02:04:32;;;;;;;12.23;7.43;;;;;;;;;;5004233;28;20216;-55
2022/03/15 02:07:11;;;;;;;11.43;7.67;;;;;;;;;;5005945;28;20648;-55
2022/03/15 02:09:37;;;;;;;10.77;6.90;;;;;;;;;;5001020;28;20196;-54
2022/03/15 02:12:03;;;;;;;10.70;7.30;;;;;;;;;;5005361;28;20693;-54
2022/03/15 02:14:29;;;;;;;12.80;7.10;;;;;;;;;;5007338;28;20246;-54
2022/03/15 02:16:55;;;;;;;9.83;7.00;;;;;;;;;;5005491;28;20762;-55
2022/03/15 02:19:21;;;;;;;9.47;7.00;;;;;;;;;;5009262;28;20203;-55
2022/03/15 02:21:47;;;;;;;11.60;7.33;;;;;;;;;;5006047;28;20283;-54
2022/03/15 02:24:14;;;;;;;12.53;7.90;;;;;;;;;;5005380;28;20194;-54
2022/03/15 02:26:40;;;;;;;10.63;8.00;;;;;;;;;;5005452;28;22201;-54
2022/03/15 02:29:06;;;;;;;11.07;7.37;;;;;;;;;;4998130;28;20223;-55
2022/03/15 02:31:32;;;;;;;12.47;8.23;;;;;;;;;;5000177;28;20373;-54
2022/03/15 02:33:58;;;;;;;10.47;7.27;;;;;;;;;;5006046;28;20196;-54
2022/03/15 02:36:24;;;;;;;10.87;7.27;;;;;;;;;;5007989;28;20212;-54
2022/03/15 02:38:49;;;;;;;9.57;7.57;;;;;;;;;;5001998;28;20189;-54
2022/03/15 02:41:15;;;;;;;8.57;7.00;;;;;;;;;;4995515;28;20278;-55
2022/03/15 02:43:42;;;;;;;11.10;7.13;;;;;;;;;;4999723;28;20267;-54
2022/03/15 02:46:08;;;;;;;9.10;7.67;;;;;;;;;;5002150;28;20245;-54
2022/03/15 02:48:35;;;;;;;12.93;7.27;;;;;;;;;;4996563;28;20635;-54
2022/03/15 02:51:04;;;;;;;9.90;7.17;;;;;;;;;;4993755;28;20199;-55
2022/03/15 02:53:30;;;;;;;12.03;7.93;;;;;;;;;;4996792;28;20204;-55
2022/03/15 02:55:56;;;;;;;13.90;8.00;;;;;;;;;;5000388;28;20220;-54
2022/03/15 02:58:22;;;;;;;11.43;7.67;;;;;;;;;;4998782;28;20192;-54
2022/03/15 03:00:48;;;;;;;11.90;7.80;;;;;;;;;;5000544;28;20304;-54
2022/03/15 03:03:14;;;;;;;11.17;7.60;;;;;;;;;;5002483;28;20280;-55
2022/03/15 03:05:40;;;;;;;11.30;7.57;;;;;;;;;;4994527;28;20215;-54
2022/03/15 03:08:06;;;;;;;9.97;7.40;;;;;;;;;;4997305;28;20663;-54
2022/03/15 03:10:32;;;;;;;16.50;7.23;;;;;;;;;;4992486;28;20211;-54
2022/03/15 03:12:59;;;;;;;10.50;7.50;;;;;;;;;;4993299;28;20280;-55
2022/03/15 03:15:26;;;;;;;11.90;8.30;;;;;;;;;;4997704;28;20324;-55
2022/03/15 03:17:52;;;;;;;10.23;7.27;;;;;;;;;;4999377;28;20197;-54
2022/03/15 03:20:19;;;;;;;10.17;7.10;;;;;;;;;;5000900;28;20278;-54
2022/03/15 03:22:50;;;;;;;9.40;7.37;;;;;;;;;;5001305;28;20209;-54
2022/03/15 03:25:16;;;;;;;9.63;7.33;;;;;;;;;;4998564;28;20237;-54
2022/03/15 03:27:42;;;;;;;10.00;7.67;;;;;;;;;;5000043;28;20201;-54
2022/03/15 03:30:09;;;;;;;8.53;7.30;;;;;;;;;;5001193;28;20205;-55
2022/03/15 03:32:35;;;;;;;10.83;7.23;;;;;;;;;;5001080;28;20197;-55
2022/03/15 03:35:04;;;;;;;11.77;7.60;;;;;;;;;;4999518;28;20247;-55
2022/03/15 03:37:30;;;;;;;11.20;7.13;;;;;;;;;;4998136;28;20220;-55
2022/03/15 03:39:56;;;;;;;12.10;7.73;;;;;;;;;;5002210;28;20307;-55
2022/03/15 03:42:22;;;;;;;9.17;6.97;;;;;;;;;;5000568;28;20268;-55
2022/03/15 03:44:48;;;;;;;11.77;7.00;;;;;;;;;;4999984;28;20192;-55
2022/03/15 03:47:14;;;;;;;10.60;6.87;;;;;;;;;;4999015;28;20195;-55
2022/03/15 03:49:40;;;;;;;8.20;6.93;;;;;;;;;;4994535;28;20204;-54
2022/03/15 03:52:06;;;;;;;10.30;7.40;;;;;;;;;;4999884;28;20212;-54
2022/03/15 03:54:33;;;;;;;8.70;7.10;;;;;;;;;;4993214;28;20690;-55
2022/03/15 03:56:59;;;;;;;8.73;6.67;;;;;;;;;;4992887;28;20694;-54
2022/03/15 03:59:25;;;;;;;9.97;7.20;;;;;;;;;;4994158;28;20192;-54
2022/03/15 04:01:51;;;;;;;9.30;7.13;;;;;;;;;;4990803;28;20185;-54
2022/03/15 04:04:17;;;;;;;11.80;7.37;;;;;;;;;;4977838;28;20223;-54
2022/03/15 04:06:44;;;;;;;9.97;7.37;;;;;;;;;;4986591;28;20702;-54
2022/03/15 04:09:10;;;;;;;10.20;6.90;;;;;;;;;;4988818;28;20211;-54
2022/03/15 04:11:36;;;;;;;8.23;6.80;;;;;;;;;;4998332;28;20192;-54
2022/03/15 04:14:03;;;;;;;8.60;6.50;;;;;;;;;;4993001;28;20304;-54
2022/03/15 04:16:30;;;;;;;8.60;7.00;;;;;;;;;;4995820;28;20212;-54
2022/03/15 04:18:56;;;;;;;10.60;7.03;;;;;;;;;;4992781;28;20205;-54
2022/03/15 04:21:24;;;;;;;10.23;7.43;;;;;;;;;;4992714;28;20185;-55
2022/03/15 04:23:51;;;;;;;10.97;7.27;;;;;;;;;;4998044;28;20201;-54
2022/03/15 04:26:17;;;;;;;12.03;6.73;;;;;;;;;;4991833;28;20263;-55
2022/03/15 04:28:43;;;;;;;8.63;6.80;;;;;;;;;;4999772;28;20629;-54
2022/03/15 04:31:09;;;;;;;12.77;7.67;;;;;;;;;;4988138;28;20810;-54
2022/03/15 04:33:35;;;;;;;10.53;7.20;;;;;;;;;;4992793;28;20219;-54
2022/03/15 04:36:00;;;;;;;12.13;7.50;;;;;;;;;;4995391;28;20929;-54
2022/03/15 04:38:27;;;;;;;10.70;7.30;;;;;;;;;;4992297;28;20196;-54
2022/03/15 04:40:53;;;;;;;8.27;6.90;;;;;;;;;;4996687;28;20189;-55
2022/03/15 04:43:19;;;;;;;11.97;7.03;;;;;;;;;;4993136;28;20202;-54
2022/03/15 04:45:45;;;;;;;10.93;7.67;;;;;;;;;;4994698;28;20241;-54
2022/03/15 04:48:11;;;;;;;9.67;6.53;;;;;;;;;;4995025;28;20217;-54
2022/03/15 04:50:38;;;;;;;10.37;6.90;;;;;;;;;;4999907;28;20708;-55
2022/03/15 04:53:04;;;;;;;10.60;6.93;;;;;;;;;;5000463;28;20724;-54
2022/03/15 04:55:30;;;;;;;12.60;6.73;;;;;;;;;;4998448;28;20193;-54
2022/03/15 04:57:56;;;;;;;10.43;6.70;;;;;;;;;;4999805;28;20199;-55
2022/03/15 05:00:22;;;;;;;9.43;6.77;;;;;;;;;;4998712;28;20200;-54
2022/03/15 05:02:48;;;;;;;8.77;6.63;;;;;;;;;;4994156;28;20456;-54
2022/03/15 05:05:14;;;;;;;12.93;7.33;;;;;;;;;;4996270;28;20407;-54
2022/03/15 05:07:40;;;;;;;11.13;6.57;;;;;;;;;;4993060;28;20235;-55
2022/03/15 05:12:51;;;;;;;9.97;6.60;;;;;;;;;;4996205;28;20243;-54
2022/03/15 05:15:17;;;;;;;10.53;6.90;;;;;;;;;;4997968;28;20347;-54
2022/03/15 05:17:43;;;;;;;8.00;6.93;;;;;;;;;;4996151;28;20213;-54
2022/03/15 05:20:10;;;;;;;9.23;6.87;;;;;;;;;;4986331;28;20718;-55
2022/03/15 05:22:36;;;;;;;12.33;6.77;;;;;;;;;;4994581;28;20189;-54
2022/03/15 05:25:02;;;;;;;10.93;6.80;;;;;;;;;;4994542;28;20322;-55
2022/03/15 05:27:27;;;;;;;11.70;7.23;;;;;;;;;;4986418;28;20209;-54
2022/03/15 05:29:53;;;;;;;9.87;6.53;;;;;;;;;;4990347;28;20295;-54
2022/03/15 05:32:19;;;;;;;9.87;5.83;;;;;;;;;;4993717;28;20266;-54
2022/03/15 05:34:46;;;;;;;11.70;6.23;;;;;;;;;;4993140;28;20190;-54
2022/03/15 05:37:12;;;;;;;10.10;6.83;;;;;;;;;;4998244;28;20216;-54
2022/03/15 05:39:38;;;;;;;11.00;6.10;;;;;;;;;;5004193;28;20193;-54
2022/03/15 05:42:04;;;;;;;10.73;6.73;;;;;;;;;;5000724;28;20220;-55
2022/03/15 05:44:30;;;;;;;7.07;6.20;;;;;;;;;;4995613;28;20298;-54
2022/03/15 05:46:56;;;;;;;10.50;6.90;;;;;;;;;;5000062;28;20740;-54
2022/03/15 05:49:22;;;;;;;10.43;6.43;;;;;;;;;;5000744;28;20950;-54
2022/03/15 05:51:48;;;;;;;10.07;6.87;;;;;;;;;;5003505;28;20195;-54
2022/03/15 05:54:14;;;;;;;8.47;6.60;;;;;;;;;;5002485;28;20607;-55
2022/03/15 05:56:40;;;;;;;7.57;6.77;;;;;;;;;;5005200;28;20502;-54
2022/03/15 05:59:06;;;;;;;11.97;7.00;;;;;;;;;;4997531;28;20896;-54
2022/03/15 06:01:32;;;;;;;10.97;6.63;;;;;;;;;;5006064;28;20722;-55
2022/03/15 06:03:59;;;;;;;10.70;6.83;;;;;;;;;;5006467;28;20872;-55
2022/03/15 06:06:25;;;;;;;7.83;6.20;;;;;;;;;;5001694;28;20196;-54
2022/03/15 06:08:51;;;;;;;10.67;6.27;;;;;;;;;;4989648;28;20197;-54
2022/03/15 06:11:19;;;;;;;8.13;6.53;;;;;;;;;;5000011;28;20194;-54
2022/03/15 06:13:45;;;;;;;9.77;6.33;;;;;;;;;;4997747;28;20215;-54
2022/03/15 06:16:11;;;;;;;9.33;6.10;;;;;;;;;;4998798;28;22297;-54
2022/03/15 06:18:37;;;;;;;10.67;6.27;;;;;;;;;;5002777;28;20582;-64
2022/03/15 06:21:03;;;;;;;10.77;6.93;;;;;;;;;;5004722;28;21112;-63
2022/03/15 06:23:29;;;;;;;10.07;5.67;;;;;;;;;;5006901;28;20654;-55
2022/03/15 06:25:55;;;;;;;11.67;6.20;;;;;;;;;;5009036;28;20676;-55
2022/03/15 06:28:21;;;;;;;14.57;7.07;;;;;;;;;;5010403;28;20227;-55
2022/03/15 06:30:47;;;;;;;9.00;6.47;;;;;;;;;;5009439;28;20272;-54
2022/03/15 06:33:13;;;;;;;12.17;6.40;;;;;;;;;;5007889;28;20216;-54
2022/03/15 06:35:39;;;;;;;9.47;5.77;;;;;;;;;;5009306;28;20208;-55
2022/03/15 06:38:05;;;;;;;9.37;6.33;;;;;;;;;;5008294;28;21216;-54
2022/03/15 06:40:33;;;;;;;8.50;6.00;;;;;;;;;;5010712;28;20190;-54
2022/03/15 06:42:59;;;;;;;9.90;5.93;;;;;;;;;;5008315;28;20283;-55
2022/03/15 06:45:25;;;;;;;10.07;5.83;;;;;;;;;;5010123;28;20193;-54
2022/03/15 06:47:51;;;;;;;8.80;6.07;;;;;;;;;;5011535;28;20205;-55
2022/03/15 06:50:17;;;;;;;11.73;5.83;;;;;;;;;;5012133;28;20193;-55
2022/03/15 06:52:44;;;;;;;11.20;5.87;;;;;;;;;;5008612;28;20191;-55
2022/03/15 06:55:10;;;;;;;8.60;5.67;;;;;;;;;;5004983;28;20531;-54
2022/03/15 06:57:36;;;;;;;7.63;5.70;;;;;;;;;;5009297;28;20271;-55
2022/03/15 07:00:04;;;;;;;7.53;5.77;;;;;;;;;;5009069;28;20191;-54
2022/03/15 07:02:30;;;;;;;9.20;4.97;;;;;;;;;;5003806;28;20189;-54
2022/03/15 07:04:56;;;;;;;7.70;5.10;;;;;;;;;;5006448;28;20209;-54
2022/03/15 07:07:23;;;;;;;8.10;5.80;;;;;;;;;;5008020;28;20604;-53
2022/03/15 07:09:49;;;;;;;7.40;4.87;;;;;;;;;;5009479;28;20254;-53
2022/03/15 07:12:15;;;;;;;10.70;5.40;;;;;;;;;;5008504;28;20201;-54
2022/03/15 07:14:43;;;;;;;9.67;5.57;;;;;;;;;;5008157;28;20204;-53
2022/03/15 07:17:09;;;;;;;6.10;5.17;;;;;;;;;;5006091;28;20220;-54
2022/03/15 07:19:35;;;;;;;8.87;5.30;;;;;;;;;;5007802;28;20208;-54
2022/03/15 07:22:01;;;;;;;10.50;6.13;;;;;;;;;;5008860;28;20543;-54
2022/03/15 07:24:27;;;;;;;7.40;5.13;;;;;;;;;;5005434;28;20255;-53
2022/03/15 07:26:53;;;;;;;9.17;5.40;;;;;;;;;;5005250;28;20197;-53
2022/03/15 07:29:19;;;;;;;7.73;5.20;;;;;;;;;;5007743;28;20307;-53
2022/03/15 07:31:45;;;;;;;9.80;5.47;;;;;;;;;;5011250;28;20271;-53
2022/03/15 07:34:11;;;;;;;8.10;5.47;;;;;;;;;;5007823;28;20671;-54
2022/03/15 07:36:37;;;;;;;7.97;5.53;;;;;;;;;;5007082;28;20213;-54
2022/03/15 07:39:04;;;;;;;9.57;5.17;;;;;;;;;;5007778;28;20240;-53
2022/03/15 07:41:32;;;;;;;6.73;4.90;;;;;;;;;;5007363;28;20196;-54
2022/03/15 07:43:59;;;;;;;7.00;4.93;;;;;;;;;;5003566;28;20829;-57
2022/03/15 07:46:25;;;;;;;8.50;4.80;;;;;;;;;;5007469;28;20555;-54
2022/03/15 07:48:51;;;;;;;5.90;4.50;;;;;;;;;;5005762;28;20193;-54
2022/03/15 07:51:16;;;;;;;6.90;5.27;;;;;;;;;;5006596;28;20194;-54
2022/03/15 07:53:43;;;;;;;9.60;5.13;;;;;;;;;;5003110;28;20203;-53
2022/03/15 07:56:10;;;;;;;7.67;5.00;;;;;;;;;;5010888;28;20220;-54
2022/03/15 07:58:37;;;;;;;7.13;4.90;;;;;;;;;;5006525;28;20702;-54
2022/03/15 08:01:04;;;;;;;9.30;5.23;;;;;;;;;;5005620;28;20198;-54
2022/03/15 08:03:30;;;;;;;7.30;4.80;;;;;;;;;;5007603;28;20671;-54
2022/03/15 08:05:56;;;;;;;5.73;4.80;;;;;;;;;;5007983;28;20283;-54
2022/03/15 08:08:22;;;;;;;6.90;4.87;;;;;;;;;;5000954;28;20314;-54
2022/03/15 08:10:48;;;;;;;10.00;4.77;;;;;;;;;;5005565;28;20194;-54
2022/03/15 08:13:14;;;;;;;16.87;5.07;;;;;;;;;;5008154;28;20201;-54
2022/03/15 08:15:40;;;;;;;8.23;4.50;;;;;;;;;;5006400;28;20255;-54
2022/03/15 08:18:06;;;;;;;9.33;4.30;;;;;;;;;;5006639;28;20274;-54
2022/03/15 08:20:33;;;;;;;8.47;4.33;;;;;;;;;;5004055;28;20861;-54
2022/03/15 08:22:59;;;;;;;6.90;4.50;;;;;;;;;;5008039;28;20264;-53
2022/03/15 08:25:25;;;;;;;7.37;4.37;;;;;;;;;;5009027;28;20609;-55
2022/03/15 08:27:51;;;;;;;11.87;4.87;;;;;;;;;;5008591;28;20617;-55
2022/03/15 08:30:17;;;;;;;8.80;4.37;;;;;;;;;;5005410;28;20197;-55
2022/03/15 08:32:43;;;;;;;8.30;4.60;;;;;;;;;;5006067;28;20205;-54
2022/03/15 08:35:09;;;;;;;9.80;4.40;;;;;;;;;;5008487;28;20248;-54
2022/03/15 08:37:36;;;;;;;6.80;4.30;;;;;;;;;;5003969;28;20641;-54
2022/03/15 08:40:02;;;;;;;8.47;4.60;;;;;;;;;;5006663;28;20197;-55
2022/03/15 08:42:28;;;;;;;8.80;4.30;;;;;;;;;;5007372;28;20658;-55
2022/03/15 08:44:54;;;;;;;7.90;4.73;;;;;;;;;;5006454;28;20197;-55
2022/03/15 08:47:20;;;;;;;6.97;4.20;;;;;;;;;;5009625;28;20280;-55
2022/03/15 08:49:46;;;;;;;7.13;4.33;;;;;;;;;;5002634;28;20204;-54
2022/03/15 08:52:12;;;;;;;7.63;4.90;;;;;;;;;;5013426;28;20211;-55
2022/03/15 08:54:38;;;;;;;9.40;5.03;;;;;;;;;;5016828;28;20188;-55
2022/03/15 08:57:04;;;;;;;6.20;4.27;;;;;;;;;;5015288;28;20584;-54
2022/03/15 08:59:30;;;;;;;7.17;4.27;;;;;;;;;;5009297;28;20193;-53
2022/03/15 09:01:57;;;;;;;7.10;4.60;;;;;;;;;;5005883;28;20208;-55
2022/03/15 09:04:23;;;;;;;6.97;4.23;;;;;;;;;;4986051;28;20939;-56
2022/03/15 09:06:49;;;;;;;10.93;4.87;;;;;;;;;;5010477;28;20201;-56
2022/03/15 09:09:21;;;;;;;7.67;4.37;;;;;;;;;;5012954;28;20207;-57
2022/03/15 09:11:47;;;;;;;6.93;4.50;;;;;;;;;;5011929;28;20526;-57
2022/03/15 09:14:13;;;;;;;8.50;5.00;;;;;;;;;;5012636;28;20685;-57
2022/03/15 09:16:39;;;;;;;9.30;4.77;;;;;;;;;;5009263;28;20209;-56
2022/03/15 09:19:06;;;;;;;6.63;4.50;;;;;;;;;;5010025;28;20211;-55
2022/03/15 09:21:32;;;;;;;8.23;4.63;;;;;;;;;;5011303;28;20263;-55
2022/03/15 09:23:58;;;;;;;7.53;4.40;;;;;;;;;;5011810;28;20190;-54
2022/03/15 09:26:24;;;;;;;7.97;4.93;;;;;;;;;;5009376;28;20237;-55
2022/03/15 09:28:51;;;;;;;8.37;4.50;;;;;;;;;;5008908;28;20193;-55
2022/03/15 09:31:17;;;;;;;5.90;4.47;;;;;;;;;;5010201;28;20658;-54
2022/03/15 09:33:43;;;;;;;6.73;4.63;;;;;;;;;;5010020;28;20193;-54
2022/03/15 09:36:09;;;;;;;10.37;4.93;;;;;;;;;;5011427;28;20687;-54
2022/03/15 09:38:35;;;;;;;9.23;5.17;;;;;;;;;;5012222;28;20631;-54
2022/03/15 09:41:02;;;;;;;8.27;4.93;;;;;;;;;;5007947;28;20208;-55
2022/03/15 09:43:28;;;;;;;9.97;4.67;;;;;;;;;;5009923;28;20189;-55
2022/03/15 09:45:54;;;;;;;6.70;4.33;;;;;;;;;;5015440;28;20201;-54
2022/03/15 09:48:21;;;;;;;7.83;4.93;;;;;;;;;;5012475;28;20197;-55
2022/03/15 09:50:51;;;;;;;9.90;4.83;;;;;;;;;;5012894;28;20185;-55
2022/03/15 09:53:17;;;;;;;8.30;4.70;;;;;;;;;;5010727;28;20190;-55
2022/03/15 09:55:45;;;;;;;6.37;4.50;;;;;;;;;;5009240;28;20186;-54
2022/03/15 09:58:11;;;;;;;6.53;4.97;;;;;;;;;;5010876;28;20197;-54
2022/03/15 10:00:38;;;;;;;7.50;4.60;;;;;;;;;;5010079;28;20559;-55
2022/03/15 10:03:04;;;;;;;7.80;4.47;;;;;;;;;;5012988;28;20200;-55
2022/03/15 10:05:30;;;;;;;6.80;4.47;;;;;;;;;;5010446;28;20204;-55
2022/03/15 10:07:56;;;;;;;9.57;5.20;;;;;;;;;;5013567;28;20204;-55
2022/03/15 10:10:23;;;;;;;9.97;4.90;;;;;;;;;;5010762;28;20194;-55
2022/03/15 10:12:49;;;;;;;8.70;4.20;;;;;;;;;;5012804;28;20224;-55
2022/03/15 10:15:16;;;;;;;10.80;4.80;;;;;;;;;;5011119;28;20221;-55
2022/03/15 10:17:45;;;;;;;7.40;4.60;;;;;;;;;;5013322;28;20225;-55
2022/03/15 10:20:13;;;;;;;9.47;4.40;;;;;;;;;;5014356;28;20231;-54
2022/03/15 10:22:39;;;;;;;7.10;4.87;;;;;;;;;;5009302;28;20243;-55
2022/03/15 10:25:05;;;;;;;8.87;4.70;;;;;;;;;;5015592;28;20237;-55
2022/03/15 10:27:35;;;;;;;8.07;4.70;;;;;;;;;;5009211;28;22701;-55
2022/03/15 10:30:03;;;;;;;6.10;4.13;;;;;;;;;;5007075;28;20198;-55
2022/03/15 10:32:28;;;;;;;9.97;4.70;;;;;;;;;;5009609;28;20662;-55
2022/03/15 10:35:04;;;;;;;9.53;5.07;;;;;;;;;;5009065;28;20264;-55
2022/03/15 10:37:31;;;;;;;9.17;4.43;;;;;;;;;;5012154;28;20295;-55
2022/03/15 10:39:57;;;;;;;5.10;4.07;;;;;;;;;;5008712;28;20200;-55
2022/03/15 10:42:23;;;;;;;7.77;5.00;;;;;;;;;;5010067;28;20285;-55
2022/03/15 10:44:49;;;;;;;8.27;4.73;;;;;;;;;;5010986;28;20607;-55
2022/03/15 10:47:17;;;;;;;7.93;4.43;;;;;;;;;;5007677;28;20436;-55
2022/03/15 10:49:49;;;;;;;8.60;4.60;;;;;;;;;;5011230;28;20427;-55
2022/03/15 10:52:16;;;;;;;7.60;4.57;;;;;;;;;;5012783;28;20220;-54
2022/03/15 10:54:43;;;;;;;8.07;4.90;;;;;;;;;;5016561;28;20275;-55
2022/03/15 10:57:09;;;;;;;6.10;4.90;;;;;;;;;;5013686;28;20209;-55
2022/03/15 10:59:35;;;;;;;6.07;4.80;;;;;;;;;;5012246;28;20556;-55
2022/03/15 11:02:01;;;;;;;8.33;4.97;;;;;;;;;;5010517;28;20201;-55
2022/03/15 11:04:27;;;;;;;6.27;4.63;;;;;;;;;;5011361;28;20213;-55
2022/03/15 11:06:55;;;;;;;8.50;5.13;;;;;;;;;;5010311;28;20268;-55
2022/03/15 11:09:24;;;;;;;7.03;4.60;;;;;;;;;;5010135;28;20200;-55
2022/03/15 11:11:53;;;;;;;10.23;5.53;;;;;;;;;;5015842;28;20733;-54
2022/03/15 11:14:28;;;;;;;6.30;4.50;;;;;;;;;;5013117;28;20216;-55
2022/03/15 11:16:54;;;;;;;7.07;4.70;;;;;;;;;;5009473;28;20214;-55
2022/03/15 11:19:20;;;;;;;7.20;4.57;;;;;;;;;;5008813;28;20185;-55
2022/03/15 11:21:47;;;;;;;7.97;4.40;;;;;;;;;;5011891;28;20225;-55
2022/03/15 11:24:13;;;;;;;7.37;4.90;;;;;;;;;;5008742;28;20201;-55
2022/03/15 11:26:44;;;;;;;6.43;4.60;;;;;;;;;;5008999;28;20193;-55
2022/03/15 11:29:10;;;;;;;8.53;5.33;;;;;;;;;;5009691;28;20746;-55
2022/03/15 11:31:38;;;;;;;7.67;5.23;;;;;;;;;;5008754;28;20280;-55
2022/03/15 11:34:04;;;;;;;6.87;5.03;;;;;;;;;;5009903;28;20669;-55
2022/03/15 11:36:30;;;;;;;6.67;4.97;;;;;;;;;;5010102;28;20223;-55
2022/03/15 11:38:56;;;;;;;6.47;4.70;;;;;;;;;;5008918;28;20193;-56
2022/03/15 11:41:22;;;;;;;6.07;4.97;;;;;;;;;;5013101;28;20219;-56
2022/03/15 11:44:00;;;;;;;7.33;4.93;;;;;;;;;;5009902;28;20190;-55
2022/03/15 11:46:28;;;;;;;6.37;4.70;;;;;;;;;;5010473;28;20204;-55
2022/03/15 11:48:55;;;;;;;7.37;5.33;;;;;;;;;;5015991;28;20340;-56
2022/03/15 11:51:21;;;;;;;6.97;5.10;;;;;;;;;;5008909;28;20200;-55
2022/03/15 11:53:52;;;;;;;11.50;5.10;;;;;;;;;;5010367;28;20678;-55
2022/03/15 11:56:22;;;;;;;5.90;5.13;;;;;;;;;;5010592;28;20208;-56
2022/03/15 11:58:54;;;;;;;9.27;5.37;;;;;;;;;;5013133;28;24764;-56
2022/03/15 12:01:22;;;;;;;7.63;4.77;;;;;;;;;;5009313;28;20189;-55
2022/03/15 12:03:51;;;;;;;9.67;5.47;;;;;;;;;;5012123;28;20189;-55
2022/03/15 12:06:30;;;;;;;8.37;5.30;;;;;;;;;;5013808;28;20327;-55
2022/03/15 12:08:57;;;;;;;5.20;4.70;;;;;;;;;;5013700;28;20661;-55
2022/03/15 12:11:36;;;;;;;7.97;5.57;;;;;;;;;;5011380;28;20222;-55
2022/03/15 12:14:07;;;;;;;7.87;5.50;;;;;;;;;;5012724;28;20597;-56
2022/03/15 12:16:47;;;;;;;6.90;5.10;;;;;;;;;;5014265;28;20614;-55
2022/03/15 12:19:35;;;;;;;6.07;5.00;;;;;;;;;;5012990;28;20566;-56
2022/03/15 12:22:03;;;;;;;7.60;5.03;;;;;;;;;;5012441;28;20212;-55
2022/03/15 12:24:32;;;;;;;6.30;4.97;;;;;;;;;;5014034;28;20233;-56
2022/03/15 12:26:59;;;;;;;7.87;5.33;;;;;;;;;;5012814;28;20291;-55
2022/03/15 12:29:27;;;;;;;7.10;5.53;;;;;;;;;;5009978;28;20227;-55
2022/03/15 12:31:53;;;;;;;7.77;4.87;;;;;;;;;;5010252;28;20192;-55
2022/03/15 12:34:19;;;;;;;5.70;5.10;;;;;;;;;;5012049;28;20190;-55
2022/03/15 12:36:51;;;;;;;8.53;4.80;;;;;;;;;;5006602;28;20296;-56
2022/03/15 12:39:21;;;;;;;9.30;5.33;;;;;;;;;;5007733;28;20208;-55
2022/03/15 12:41:48;;;;;;;6.83;4.57;;;;;;;;;;5011302;28;20204;-55
2022/03/15 12:44:14;;;;;;;6.50;4.73;;;;;;;;;;5011751;28;20654;-55
2022/03/15 12:46:40;;;;;;;7.20;5.00;;;;;;;;;;5014487;28;20314;-55
2022/03/15 12:49:27;;;;;;;9.83;5.10;;;;;;;;;;5010168;28;20213;-55
2022/03/15 12:51:54;;;;;;;6.53;4.53;;;;;;;;;;5002333;28;20208;-55
2022/03/15 12:54:20;;;;;;;10.63;5.00;;;;;;;;;;5008418;28;20284;-55
2022/03/15 12:56:47;;;;;;;6.87;4.70;;;;;;;;;;5013048;28;20299;-54
2022/03/15 12:59:16;;;;;;;7.50;4.73;;;;;;;;;;5010627;28;21355;-55
2022/03/15 13:01:46;;;;;;;6.40;4.80;;;;;;;;;;5009984;28;20193;-55
2022/03/15 13:04:12;;;;;;;7.00;4.73;;;;;;;;;;5006499;28;20196;-58
2022/03/15 13:06:40;;;;;;;8.70;4.53;;;;;;;;;;5009357;28;20759;-57
2022/03/15 13:09:07;;;;;;;6.17;4.63;;;;;;;;;;5002164;28;20201;-56
2022/03/15 13:11:34;;;;;;;7.23;4.47;;;;;;;;;;5013296;28;20200;-56
2022/03/15 13:14:00;;;;;;;7.10;4.67;;;;;;;;;;5012138;28;20201;-56
2022/03/15 13:16:26;;;;;;;7.50;4.37;;;;;;;;;;5012586;28;20587;-56
2022/03/15 13:18:52;;;;;;;6.87;4.20;;;;;;;;;;5013291;28;20196;-59
2022/03/15 13:21:18;;;;;;;5.87;5.10;;;;;;;;;;5009954;28;20200;-56
2022/03/15 13:23:48;;;;;;;8.40;4.03;;;;;;;;;;5010228;28;20670;-54
2022/03/15 13:26:16;;;;;;;10.63;4.37;;;;;;;;;;5006011;28;20336;-56
2022/03/15 13:28:44;;;;;;;8.03;4.40;;;;;;;;;;5010900;28;20741;-56
2022/03/15 13:31:11;;;;;;;5.87;3.70;;;;;;;;;;5006978;28;20284;-57
2022/03/15 13:33:38;;;;;;;10.93;3.80;;;;;;;;;;5004328;28;20193;-57
2022/03/15 13:36:05;;;;;;;7.33;3.67;;;;;;;;;;5003094;28;20985;-56
2022/03/15 13:38:34;;;;;;;7.60;4.63;;;;;;;;;;5010524;28;21844;-55
2022/03/15 13:41:00;;;;;;;7.40;4.40;;;;;;;;;;5010924;28;20248;-55
2022/03/15 13:43:27;;;;;;;6.17;4.27;;;;;;;;;;5010916;28;20269;-56
2022/03/15 13:45:54;;;;;;;5.77;4.10;;;;;;;;;;5007358;28;20185;-56
2022/03/15 13:48:27;;;;;;;5.07;4.27;;;;;;;;;;5007379;28;20300;-55
2022/03/15 13:51:04;;;;;;;6.10;3.97;;;;;;;;;;5003506;28;20602;-57
2022/03/15 13:53:31;;;;;;;8.83;3.87;;;;;;;;;;5004278;28;20603;-59
2022/03/15 13:56:06;;;;;;;7.90;3.93;;;;;;;;;;5005542;28;20291;-57
2022/03/15 13:58:32;;;;;;;6.80;3.63;;;;;;;;;;5008977;28;20192;-58
2022/03/15 14:01:04;;;;;;;8.73;3.57;;;;;;;;;;5007118;28;20189;-57
2022/03/15 14:03:32;;;;;;;5.83;3.60;;;;;;;;;;5012060;28;20192;-57
2022/03/15 14:06:02;;;;;;;5.87;3.57;;;;;;;;;;5001489;28;20214;-57
2022/03/15 14:08:28;;;;;;;5.37;4.00;;;;;;;;;;5001531;28;20189;-56
2022/03/15 14:10:54;;;;;;;5.43;3.90;;;;;;;;;;5009272;28;20603;-56
2022/03/15 14:13:25;;;;;;;7.00;4.07;;;;;;;;;;5011792;28;20736;-57
2022/03/15 14:15:59;;;;;;;4.23;3.40;;;;;;;;;;5011173;28;20242;-56
2022/03/15 14:18:25;;;;;;;6.53;3.93;;;;;;;;;;5011482;28;20202;-56
2022/03/15 14:20:51;;;;;;;5.37;3.93;;;;;;;;;;5011182;28;20189;-56
2022/03/15 14:23:17;;;;;;;8.63;4.60;;;;;;;;;;5005519;28;20259;-56
2022/03/15 14:25:44;;;;;;;10.60;4.00;;;;;;;;;;5007981;28;20775;-57
2022/03/15 14:28:11;;;;;;;7.23;4.37;;;;;;;;;;4999873;28;20642;-56
2022/03/15 14:30:38;;;;;;;6.57;4.23;;;;;;;;;;5005927;28;20182;-58
2022/03/15 14:33:07;;;;;;;7.53;4.17;;;;;;;;;;5007749;28;20762;-57
2022/03/15 14:35:35;;;;;;;6.23;4.27;;;;;;;;;;5005037;28;20559;-58
2022/03/15 14:38:10;;;;;;;5.90;3.83;;;;;;;;;;5003970;28;20765;-58